Brant — 5BBK2 — position and weather

sailwx.info

Track history (hours):
 
Tides and Currents Weather Stations Pressure Air Temp Water Temp Dewpoint Dewpoint Depression Visibility Wind Speed Wind Dir Waves Ship Positions

Brant

Last reported at 2014-Aug-29 23:32 UTC. Time now 2014-Aug-30 00:27 UTC.
Position N 53°45' W 000°16'.

Length 185 m; draft 9.9 m.

Type: Cargo ship. MMSI: 212372000.

Date/timePositionNaut miles runAvg speedWind from/ knotsBaromVisibWave heightAir tempDewpointWater temp
2014-Aug-29 23:32N 53°45' W 000°16'0 0.0
2014-Aug-29 22:32N 53°45' W 000°16'0 0.0
2014-Aug-29 21:32N 53°45' W 000°16'0 0.0
2014-Aug-29 20:32N 53°45' W 000°16'0 0.0
2014-Aug-29 19:32N 53°45' W 000°16'0 0.0
2014-Aug-29 18:33N 53°45' W 000°16'0 0.0
2014-Aug-29 17:32N 53°45' W 000°16'0 0.0
2014-Aug-29 16:32N 53°45' W 000°16'0 0.0
2014-Aug-29 15:29N 53°45' W 000°16'0 0.0
2014-Aug-29 14:29N 53°45' W 000°16'0 0.0
2014-Aug-29 13:32N 53°45' W 000°16'0 0.0
2014-Aug-29 12:32N 53°45' W 000°16'0 0.0
2014-Aug-29 11:32N 53°45' W 000°16'0 0.0
2014-Aug-29 10:33N 53°45' W 000°16'0 0.0
2014-Aug-29 09:32N 53°45' W 000°16'0 0.0
2014-Aug-29 08:05N 53°45' W 000°16'0 0.0
2014-Aug-29 07:23N 53°45' W 000°16'0 0.0
2014-Aug-29 06:23N 53°45' W 000°16'0 0.0
2014-Aug-29 05:29N 53°45' W 000°16'0 0.0
2014-Aug-29 04:32N 53°45' W 000°16'0 0.0
2014-Aug-29 03:26N 53°45' W 000°16'0 0.0
2014-Aug-29 02:29N 53°45' W 000°16'0 0.0
2014-Aug-29 01:32N 53°45' W 000°16'0 0.0
2014-Aug-29 00:32N 53°45' W 000°16'0 0.0
2014-Aug-28 23:32N 53°45' W 000°16'0 0.0
2014-Aug-28 22:32N 53°45' W 000°16'0 0.0
2014-Aug-28 21:29N 53°45' W 000°16'0 0.0
2014-Aug-28 20:32N 53°45' W 000°16'0 0.3
2014-Aug-28 19:33N 53°44' W 000°16'3 2.8
2014-Aug-28 18:34N 53°42' W 000°14'8 8.0
2014-Aug-28 17:33N 53°37' W 000°03'1110.7
2014-Aug-28 16:34N 53°33' E 000°13'8 7.8
2014-Aug-28 15:33N 53°38' E 000°24'2 1.4
2014-Aug-28 14:15N 53°37' E 000°26'0 0.1
2014-Aug-28 13:30N 53°37' E 000°25'3 3.7
2014-Aug-28 12:33N 53°37' E 000°31'3411.1
2014-Aug-28 09:30N 53°14' E 001°13'9 9.8
2014-Aug-28 08:33N 53°07' E 001°24'1010.1
2014-Aug-28 07:34N 53°02' E 001°38'1110.6
2014-Aug-28 06:33N 52°58' E 001°54'1311.8
2014-Aug-28 05:29N 52°49' E 002°10'1313.8
2014-Aug-28 04:33N 52°37' E 002°16'5412.6
2014-Aug-28 00:14N 51°43' E 002°31'811.8
2014-Aug-27 23:33N 51°37' E 002°23'1110.8
2014-Aug-27 22:33N 51°28' E 002°12'10 9.7
2014-Aug-27 21:33N 51°19' E 002°08'9 9.2
2014-Aug-27 20:33N 51°12' E 001°59'9 9.3
2014-Aug-27 19:33N 51°07' E 001°47'9 9.4
2014-Aug-27 18:34N 51°00' E 001°36'1510.3
2014-Aug-27 17:08N 50°47' E 001°24'711.2
2014-Aug-27 16:33N 50°41' E 001°21'1511.3
2014-Aug-27 15:14N 50°31' E 001°04'710.9
2014-Aug-27 14:33N 50°28' E 000°53'1110.9
2014-Aug-27 13:33N 50°25' E 000°37'1111.2
2014-Aug-27 12:32N 50°22' E 000°19'  
Track history (hours):
 
Tides and Currents Weather Stations Pressure Air Temp Water Temp Dewpoint Dewpoint Depression Visibility Wind Speed Wind Dir Waves Ship Positions

Brant

Last reported at 2014-Aug-29 23:32 UTC. Time now 2014-Aug-30 00:27 UTC.
Position N 53°45' W 000°16'.

Length 185 m; draft 9.9 m.

Type: Cargo ship. MMSI: 212372000.

Date/timePositionNaut miles runAvg speedWind from/ knotsBaromVisibWave heightAir tempDewpointWater temp
2014-Aug-29 23:32N 53°45' W 000°16'0 0.0
2014-Aug-29 22:32N 53°45' W 000°16'0 0.0
2014-Aug-29 21:32N 53°45' W 000°16'0 0.0
2014-Aug-29 20:32N 53°45' W 000°16'0 0.0
2014-Aug-29 19:32N 53°45' W 000°16'0 0.0
2014-Aug-29 18:33N 53°45' W 000°16'0 0.0
2014-Aug-29 17:32N 53°45' W 000°16'0 0.0
2014-Aug-29 16:32N 53°45' W 000°16'0 0.0
2014-Aug-29 15:29N 53°45' W 000°16'0 0.0
2014-Aug-29 14:29N 53°45' W 000°16'0 0.0
2014-Aug-29 13:32N 53°45' W 000°16'0 0.0
2014-Aug-29 12:32N 53°45' W 000°16'0 0.0
2014-Aug-29 11:32N 53°45' W 000°16'0 0.0
2014-Aug-29 10:33N 53°45' W 000°16'0 0.0
2014-Aug-29 09:32N 53°45' W 000°16'0 0.0
2014-Aug-29 08:05N 53°45' W 000°16'0 0.0
2014-Aug-29 07:23N 53°45' W 000°16'0 0.0
2014-Aug-29 06:23N 53°45' W 000°16'0 0.0
2014-Aug-29 05:29N 53°45' W 000°16'0 0.0
2014-Aug-29 04:32N 53°45' W 000°16'0 0.0
2014-Aug-29 03:26N 53°45' W 000°16'0 0.0
2014-Aug-29 02:29N 53°45' W 000°16'0 0.0
2014-Aug-29 01:32N 53°45' W 000°16'0 0.0
2014-Aug-29 00:32N 53°45' W 000°16'0 0.0
2014-Aug-28 23:32N 53°45' W 000°16'0 0.0
2014-Aug-28 22:32N 53°45' W 000°16'0 0.0
2014-Aug-28 21:29N 53°45' W 000°16'0 0.0
2014-Aug-28 20:32N 53°45' W 000°16'0 0.3
2014-Aug-28 19:33N 53°44' W 000°16'3 2.8
2014-Aug-28 18:34N 53°42' W 000°14'8 8.0
2014-Aug-28 17:33N 53°37' W 000°03'1110.7
2014-Aug-28 16:34N 53°33' E 000°13'8 7.8
2014-Aug-28 15:33N 53°38' E 000°24'2 1.4
2014-Aug-28 14:15N 53°37' E 000°26'0 0.1
2014-Aug-28 13:30N 53°37' E 000°25'3 3.7
2014-Aug-28 12:33N 53°37' E 000°31'3411.1
2014-Aug-28 09:30N 53°14' E 001°13'9 9.8
2014-Aug-28 08:33N 53°07' E 001°24'1010.1
2014-Aug-28 07:34N 53°02' E 001°38'1110.6
2014-Aug-28 06:33N 52°58' E 001°54'1311.8
2014-Aug-28 05:29N 52°49' E 002°10'1313.8
2014-Aug-28 04:33N 52°37' E 002°16'5412.6
2014-Aug-28 00:14N 51°43' E 002°31'811.8
2014-Aug-27 23:33N 51°37' E 002°23'1110.8
2014-Aug-27 22:33N 51°28' E 002°12'10 9.7
2014-Aug-27 21:33N 51°19' E 002°08'9 9.2
2014-Aug-27 20:33N 51°12' E 001°59'9 9.3
2014-Aug-27 19:33N 51°07' E 001°47'9 9.4
2014-Aug-27 18:34N 51°00' E 001°36'1510.3
2014-Aug-27 17:08N 50°47' E 001°24'711.2
2014-Aug-27 16:33N 50°41' E 001°21'1511.3
2014-Aug-27 15:14N 50°31' E 001°04'710.9
2014-Aug-27 14:33N 50°28' E 000°53'1110.9
2014-Aug-27 13:33N 50°25' E 000°37'1111.2
2014-Aug-27 12:32N 50°22' E 000°19'  

Dump ship's entire track history